sensor_id;sensor_type;location;lat;lon;timestamp;pressure;altitude;pressure_sealevel;temperature;humidity
28428;BME280;15662;49.128;8.520;2023-04-01T00:01:14;99019.09;;;14.95;52.45
28428;BME280;15662;49.128;8.520;2023-04-01T00:03:42;99004.94;;;14.80;52.45
28428;BME280;15662;49.128;8.520;2023-04-01T00:06:16;99018.66;;;14.88;52.54
28428;BME280;15662;49.128;8.520;2023-04-01T00:08:45;99016.28;;;14.84;52.48
28428;BME280;15662;49.128;8.520;2023-04-01T00:11:14;99020.09;;;14.80;52.52
28428;BME280;15662;49.128;8.520;2023-04-01T00:13:43;99027.13;;;14.81;52.64
28428;BME280;15662;49.128;8.520;2023-04-01T00:16:12;99018.84;;;14.85;52.49
28428;BME280;15662;49.128;8.520;2023-04-01T00:18:50;99019.91;;;14.83;52.72
28428;BME280;15662;49.128;8.520;2023-04-01T00:21:20;99029.41;;;14.87;52.71
28428;BME280;15662;49.128;8.520;2023-04-01T00:23:50;99029.41;;;14.87;52.66
28428;BME280;15662;49.128;8.520;2023-04-01T00:26:18;99015.22;;;14.86;52.67
28428;BME280;15662;49.128;8.520;2023-04-01T00:28:49;99031.50;;;14.82;52.78
28428;BME280;15662;49.128;8.520;2023-04-01T00:31:18;99018.00;;;14.85;52.75
28428;BME280;15662;49.128;8.520;2023-04-01T00:33:46;99020.53;;;14.86;52.73
28428;BME280;15662;49.128;8.520;2023-04-01T00:36:17;99007.31;;;14.85;52.67
28428;BME280;15662;49.128;8.520;2023-04-01T00:38:45;99018.84;;;14.85;52.69
28428;BME280;15662;49.128;8.520;2023-04-01T00:41:15;99018.72;;;14.87;52.65
28428;BME280;15662;49.128;8.520;2023-04-01T00:43:48;99015.31;;;14.85;52.65
28428;BME280;15662;49.128;8.520;2023-04-01T00:46:18;99006.75;;;14.80;52.74
28428;BME280;15662;49.128;8.520;2023-04-01T00:48:53;98993.31;;;14.81;52.67
28428;BME280;15662;49.128;8.520;2023-04-01T00:51:27;99012.75;;;14.83;52.68
28428;BME280;15662;49.128;8.520;2023-04-01T00:53:58;99003.13;;;14.81;52.83
28428;BME280;15662;49.128;8.520;2023-04-01T00:56:36;99001.53;;;14.78;52.79
28428;BME280;15662;49.128;8.520;2023-04-01T00:59:15;99005.78;;;14.81;52.85
28428;BME280;15662;49.128;8.520;2023-04-01T01:01:43;99004.84;;;14.82;53.10
28428;BME280;15662;49.128;8.520;2023-04-01T01:04:27;98999.41;;;14.83;52.73
28428;BME280;15662;49.128;8.520;2023-04-01T01:07:27;99003.97;;;14.81;52.60
28428;BME280;15662;49.128;8.520;2023-04-01T01:10:23;99009.44;;;14.80;52.69
28428;BME280;15662;49.128;8.520;2023-04-01T01:16:00;98990.88;;;14.78;52.91
28428;BME280;15662;49.128;8.520;2023-04-01T01:18:49;98998.47;;;14.84;52.79
28428;BME280;15662;49.128;8.520;2023-04-01T01:21:52;98986.81;;;14.85;52.89
28428;BME280;15662;49.128;8.520;2023-04-01T01:33:01;98985.13;;;14.84;52.82
28428;BME280;15662;49.128;8.520;2023-04-01T01:35:50;98989.31;;;14.88;52.88
28428;BME280;15662;49.128;8.520;2023-04-01T01:38:25;98988.13;;;14.92;52.83
28428;BME280;15662;49.128;8.520;2023-04-01T01:41:00;98975.44;;;14.96;52.75
28428;BME280;15662;49.128;8.520;2023-04-01T01:43:40;98982.19;;;15.02;52.47
28428;BME280;15662;49.128;8.520;2023-04-01T01:46:19;98975.03;;;15.02;52.69
28428;BME280;15662;49.128;8.520;2023-04-01T01:48:49;98969.94;;;14.99;52.72
28428;BME280;15662;49.128;8.520;2023-04-01T01:51:20;98967.16;;;15.01;52.55
28428;BME280;15662;49.128;8.520;2023-04-01T01:53:49;98974.97;;;15.04;52.66
28428;BME280;15662;49.128;8.520;2023-04-01T01:56:22;98975.50;;;15.09;52.66
28428;BME280;15662;49.128;8.520;2023-04-01T01:59:01;98973.81;;;15.08;52.50
28428;BME280;15662;49.128;8.520;2023-04-01T02:01:33;98986.25;;;15.07;52.53
28428;BME280;15662;49.128;8.520;2023-04-01T02:04:11;98973.88;;;15.06;52.65
28428;BME280;15662;49.128;8.520;2023-04-01T02:06:47;98973.88;;;15.06;52.55
28428;BME280;15662;49.128;8.520;2023-04-01T02:09:17;98980.00;;;15.08;52.58
28428;BME280;15662;49.128;8.520;2023-04-01T02:11:57;98971.75;;;15.11;52.53
28428;BME280;15662;49.128;8.520;2023-04-01T02:15:06;98988.56;;;15.13;52.30
28428;BME280;15662;49.128;8.520;2023-04-01T02:17:41;98979.78;;;15.11;52.38
28428;BME280;15662;49.128;8.520;2023-04-01T02:20:22;98972.63;;;15.12;52.26
28428;BME280;15662;49.128;8.520;2023-04-01T02:22:56;98973.16;;;15.17;52.37
28428;BME280;15662;49.128;8.520;2023-04-01T02:25:34;98975.75;;;15.18;52.23
28428;BME280;15662;49.128;8.520;2023-04-01T02:28:05;98980.31;;;15.16;52.19
28428;BME280;15662;49.128;8.520;2023-04-01T02:30:36;98980.31;;;15.16;52.02
28428;BME280;15662;49.128;8.520;2023-04-01T02:33:06;98989.41;;;15.14;52.09
28428;BME280;15662;49.128;8.520;2023-04-01T02:35:36;98980.63;;;15.12;51.91
28428;BME280;15662;49.128;8.520;2023-04-01T02:38:05;98980.84;;;15.09;51.87
28428;BME280;15662;49.128;8.520;2023-04-01T02:40:49;98976.25;;;15.11;51.61
28428;BME280;15662;49.128;8.520;2023-04-01T02:43:17;98988.19;;;15.05;51.77
28428;BME280;15662;49.128;8.520;2023-04-01T02:45:46;98986.78;;;15.00;51.77
28428;BME280;15662;49.128;8.520;2023-04-01T02:48:14;98981.44;;;15.00;51.76
28428;BME280;15662;49.128;8.520;2023-04-01T02:50:43;98985.94;;;14.99;51.68
28428;BME280;15662;49.128;8.520;2023-04-01T02:53:11;98974.50;;;14.97;51.34
28428;BME280;15662;49.128;8.520;2023-04-01T02:55:39;98978.97;;;14.96;51.45
28428;BME280;15662;49.128;8.520;2023-04-01T02:58:07;98979.06;;;14.95;51.37
28428;BME280;15662;49.128;8.520;2023-04-01T03:00:36;98980.78;;;14.96;51.38
28428;BME280;15662;49.128;8.520;2023-04-01T03:03:03;98976.41;;;14.95;51.32
28428;BME280;15662;49.128;8.520;2023-04-01T03:05:31;98984.41;;;14.95;51.30
28428;BME280;15662;49.128;8.520;2023-04-01T03:07:59;98977.56;;;14.91;51.29
28428;BME280;15662;49.128;8.520;2023-04-01T03:10:27;98971.56;;;14.87;51.28
28428;BME280;15662;49.128;8.520;2023-04-01T03:12:55;98977.13;;;14.84;51.30
28428;BME280;15662;49.128;8.520;2023-04-01T03:15:23;98977.88;;;14.86;51.27
28428;BME280;15662;49.128;8.520;2023-04-01T03:17:51;98974.78;;;14.92;51.22
28428;BME280;15662;49.128;8.520;2023-04-01T03:20:19;98989.88;;;14.93;51.37
28428;BME280;15662;49.128;8.520;2023-04-01T03:22:47;98985.28;;;14.95;51.25
28428;BME280;15662;49.128;8.520;2023-04-01T03:25:15;98987.19;;;14.93;51.24
28428;BME280;15662;49.128;8.520;2023-04-01T03:27:44;98988.78;;;14.96;51.26
28428;BME280;15662;49.128;8.520;2023-04-01T03:30:12;98978.22;;;14.94;51.17
28428;BME280;15662;49.128;8.520;2023-04-01T03:32:48;98989.00;;;14.93;51.19
28428;BME280;15662;49.128;8.520;2023-04-01T03:35:17;98990.72;;;14.94;51.15
28428;BME280;15662;49.128;8.520;2023-04-01T03:37:46;98998.72;;;14.94;51.28
28428;BME280;15662;49.128;8.520;2023-04-01T03:40:14;98987.19;;;14.93;51.41
28428;BME280;15662;49.128;8.520;2023-04-01T03:42:42;98999.22;;;14.86;51.49
28428;BME280;15662;49.128;8.520;2023-04-01T03:45:11;98999.69;;;14.93;51.47
28428;BME280;15662;49.128;8.520;2023-04-01T03:47:42;98985.13;;;14.84;51.67
28428;BME280;15662;49.128;8.520;2023-04-01T03:50:10;98999.13;;;14.88;51.76
28428;BME280;15662;49.128;8.520;2023-04-01T03:52:39;98990.34;;;14.86;51.94
28428;BME280;15662;49.128;8.520;2023-04-01T03:55:07;99000.34;;;14.82;52.00
28428;BME280;15662;49.128;8.520;2023-04-01T03:57:36;98991.50;;;14.82;51.84
28428;BME280;15662;49.128;8.520;2023-04-01T04:00:14;98997.50;;;14.85;52.01
28428;BME280;15662;49.128;8.520;2023-04-01T04:02:45;98991.41;;;14.83;52.11
28428;BME280;15662;49.128;8.520;2023-04-01T04:05:18;98999.22;;;14.86;52.16
28428;BME280;15662;49.128;8.520;2023-04-01T04:07:47;98977.53;;;14.78;51.98
28428;BME280;15662;49.128;8.520;2023-04-01T04:10:15;98987.03;;;14.82;52.05
28428;BME280;15662;49.128;8.520;2023-04-01T04:12:43;98981.78;;;14.81;52.01
28428;BME280;15662;49.128;8.520;2023-04-01T04:15:12;98981.25;;;14.76;52.04
28428;BME280;15662;49.128;8.520;2023-04-01T04:17:39;98978.56;;;14.76;51.97
28428;BME280;15662;49.128;8.520;2023-04-01T04:20:08;98986.69;;;14.74;52.15
28428;BME280;15662;49.128;8.520;2023-04-01T04:22:36;98982.19;;;14.75;52.04
28428;BME280;15662;49.128;8.520;2023-04-01T04:25:07;98982.19;;;14.75;51.95
28428;BME280;15662;49.128;8.520;2023-04-01T04:27:36;98974.03;;;14.63;52.11
28428;BME280;15662;49.128;8.520;2023-04-01T04:30:09;98983.25;;;14.72;52.12
28428;BME280;15662;49.128;8.520;2023-04-01T04:32:57;98981.75;;;14.68;51.96
28428;BME280;15662;49.128;8.520;2023-04-01T04:35:25;98963.09;;;14.68;52.07
28428;BME280;15662;49.128;8.520;2023-04-01T04:37:53;98976.00;;;14.74;52.09
28428;BME280;15662;49.128;8.520;2023-04-01T04:40:21;98975.16;;;14.74;51.95
28428;BME280;15662;49.128;8.520;2023-04-01T04:42:49;98967.22;;;14.72;52.11
28428;BME280;15662;49.128;8.520;2023-04-01T04:45:17;98966.09;;;14.76;51.91
28428;BME280;15662;49.128;8.520;2023-04-01T04:47:54;98970.56;;;14.76;51.95
28428;BME280;15662;49.128;8.520;2023-04-01T04:50:23;98968.88;;;14.75;51.84
28428;BME280;15662;49.128;8.520;2023-04-01T04:52:51;98973.34;;;14.74;51.78
28428;BME280;15662;49.128;8.520;2023-04-01T04:55:20;98966.09;;;14.76;51.68
28428;BME280;15662;49.128;8.520;2023-04-01T04:57:54;98945.81;;;14.74;51.69
28428;BME280;15662;49.128;8.520;2023-04-01T05:00:22;98943.91;;;14.76;51.79
28428;BME280;15662;49.128;8.520;2023-04-01T05:02:59;98943.91;;;14.76;51.73
28428;BME280;15662;49.128;8.520;2023-04-01T05:05:27;98942.84;;;14.78;51.84
28428;BME280;15662;49.128;8.520;2023-04-01T05:07:56;98943.72;;;14.79;51.70
28428;BME280;15662;49.128;8.520;2023-04-01T05:10:24;98947.31;;;14.78;51.71
28428;BME280;15662;49.128;8.520;2023-04-01T05:12:52;98938.44;;;14.77;51.81
28428;BME280;15662;49.128;8.520;2023-04-01T05:15:22;98945.41;;;14.80;51.87
28428;BME280;15662;49.128;8.520;2023-04-01T05:17:51;98930.25;;;14.80;51.76
28428;BME280;15662;49.128;8.520;2023-04-01T05:20:19;98937.41;;;14.80;51.63
28428;BME280;15662;49.128;8.520;2023-04-01T05:22:47;98931.78;;;14.84;51.74
28428;BME280;15662;49.128;8.520;2023-04-01T05:25:15;98936.81;;;14.89;51.62
28428;BME280;15662;49.128;8.520;2023-04-01T05:27:43;98944.81;;;14.89;51.66
28428;BME280;15662;49.128;8.520;2023-04-01T05:30:11;98940.22;;;14.91;51.54
28428;BME280;15662;49.128;8.520;2023-04-01T05:33:02;98937.84;;;14.86;51.70
28428;BME280;15662;49.128;8.520;2023-04-01T05:35:30;98941.59;;;14.84;51.67
28428;BME280;15662;49.128;8.520;2023-04-01T05:37:59;98938.25;;;14.80;51.93
28428;BME280;15662;49.128;8.520;2023-04-01T05:40:28;98934.63;;;14.81;51.94
28428;BME280;15662;49.128;8.520;2023-04-01T05:42:56;98947.00;;;14.82;52.03
28428;BME280;15662;49.128;8.520;2023-04-01T05:45:24;98942.44;;;14.84;51.95
28428;BME280;15662;49.128;8.520;2023-04-01T05:48:18;98940.94;;;14.80;51.90
28428;BME280;15662;49.128;8.520;2023-04-01T05:50:46;98939.97;;;14.81;51.88
28428;BME280;15662;49.128;8.520;2023-04-01T05:53:14;98942.56;;;14.83;51.84
28428;BME280;15662;49.128;8.520;2023-04-01T05:55:43;98946.72;;;14.87;51.77
28428;BME280;15662;49.128;8.520;2023-04-01T05:58:11;98951.84;;;14.90;51.69
28428;BME280;15662;49.128;8.520;2023-04-01T06:00:42;98952.34;;;14.82;51.54
28428;BME280;15662;49.128;8.520;2023-04-01T06:03:10;98959.31;;;14.85;51.66
28428;BME280;15662;49.128;8.520;2023-04-01T06:05:43;98946.06;;;14.83;51.72
28428;BME280;15662;49.128;8.520;2023-04-01T06:08:15;98951.59;;;14.80;51.84
28428;BME280;15662;49.128;8.520;2023-04-01T06:11:46;98946.38;;;14.79;51.72
28428;BME280;15662;49.128;8.520;2023-04-01T06:14:10;98963.22;;;14.79;52.04
28428;BME280;15662;49.128;8.520;2023-04-01T06:20:07;98969.31;;;14.81;52.02
28428;BME280;15662;49.128;8.520;2023-04-01T06:23:12;98970.47;;;14.77;52.28
28428;BME280;15662;49.128;8.520;2023-04-01T06:26:36;98972.56;;;14.72;52.42
28428;BME280;15662;49.128;8.520;2023-04-01T06:32:28;98970.56;;;14.76;52.70
28428;BME280;15662;49.128;8.520;2023-04-01T06:35:34;98976.56;;;14.79;52.70
28428;BME280;15662;49.128;8.520;2023-04-01T06:45:27;98967.16;;;14.74;52.90
28428;BME280;15662;49.128;8.520;2023-04-01T06:48:36;98974.88;;;14.78;52.97
28428;BME280;15662;49.128;8.520;2023-04-01T06:52:00;98985.22;;;14.83;53.02
28428;BME280;15662;49.128;8.520;2023-04-01T06:54:55;98978.16;;;14.82;53.32
28428;BME280;15662;49.128;8.520;2023-04-01T06:58:00;98979.00;;;14.82;53.21
28428;BME280;15662;49.128;8.520;2023-04-01T07:00:39;98957.69;;;14.82;53.21
28428;BME280;15662;49.128;8.520;2023-04-01T07:03:26;98965.75;;;14.95;53.22
28428;BME280;15662;49.128;8.520;2023-04-01T07:06:25;98965.63;;;14.96;53.25
28428;BME280;15662;49.128;8.520;2023-04-01T07:09:05;98977.25;;;14.95;53.32
28428;BME280;15662;49.128;8.520;2023-04-01T07:15:43;98968.09;;;14.73;53.98
28428;BME280;15662;49.128;8.520;2023-04-01T07:18:41;98980.09;;;14.80;53.89
28428;BME280;15662;49.128;8.520;2023-04-01T07:21:29;98980.81;;;14.82;54.10
28428;BME280;15662;49.128;8.520;2023-04-01T07:24:17;98985.22;;;14.83;54.11
28428;BME280;15662;49.128;8.520;2023-04-01T07:27:00;98974.75;;;14.80;54.22
28428;BME280;15662;49.128;8.520;2023-04-01T07:29:31;98983.31;;;14.85;54.35
28428;BME280;15662;49.128;8.520;2023-04-01T07:32:39;98983.75;;;14.91;54.41
28428;BME280;15662;49.128;8.520;2023-04-01T07:41:21;98984.00;;;15.01;54.46
28428;BME280;15662;49.128;8.520;2023-04-01T07:44:25;98982.91;;;14.91;54.51
28428;BME280;15662;49.128;8.520;2023-04-01T07:47:40;98992.16;;;14.85;54.68
28428;BME280;15662;49.128;8.520;2023-04-01T07:50:35;98996.66;;;14.85;54.89
28428;BME280;15662;49.128;8.520;2023-04-01T08:00:06;98983.50;;;14.82;55.56
28428;BME280;15662;49.128;8.520;2023-04-01T08:06:05;99001.69;;;14.89;55.55
28428;BME280;15662;49.128;8.520;2023-04-01T08:08:59;98994.22;;;14.94;55.40
28428;BME280;15662;49.128;8.520;2023-04-01T08:18:33;98990.91;;;14.91;55.47
28428;BME280;15662;49.128;8.520;2023-04-01T08:21:23;98991.75;;;14.91;55.54
28428;BME280;15662;49.128;8.520;2023-04-01T08:24:20;98987.78;;;14.84;55.88
28428;BME280;15662;49.128;8.520;2023-04-01T08:27:00;99007.22;;;14.86;56.11
28428;BME280;15662;49.128;8.520;2023-04-01T08:29:58;99002.53;;;14.90;56.10
28428;BME280;15662;49.128;8.520;2023-04-01T08:32:41;98989.09;;;14.91;56.11
28428;BME280;15662;49.128;8.520;2023-04-01T08:38:42;99007.06;;;15.02;56.41
28428;BME280;15662;49.128;8.520;2023-04-01T09:14:41;99008.59;;;15.46;56.39
28428;BME280;15662;49.128;8.520;2023-04-01T09:18:12;99012.75;;;15.50;56.25
28428;BME280;15662;49.128;8.520;2023-04-01T09:27:05;99011.94;;;15.62;56.46
28428;BME280;15662;49.128;8.520;2023-04-01T09:48:49;99026.22;;;15.88;55.70
28428;BME280;15662;49.128;8.520;2023-04-01T10:09:40;99040.22;;;15.92;55.79
28428;BME280;15662;49.128;8.520;2023-04-01T10:12:25;99037.97;;;15.86;55.99
28428;BME280;15662;49.128;8.520;2023-04-01T10:48:21;99056.56;;;16.64;55.36
28428;BME280;15662;49.128;8.520;2023-04-01T10:56:39;99060.28;;;16.87;54.94
28428;BME280;15662;49.128;8.520;2023-04-01T11:34:43;99087.69;;;16.65;54.60
28428;BME280;15662;49.128;8.520;2023-04-01T11:44:28;99092.94;;;16.66;54.81
28428;BME280;15662;49.128;8.520;2023-04-01T11:47:49;99106.06;;;16.69;54.58
28428;BME280;15662;49.128;8.520;2023-04-01T11:51:10;99105.34;;;16.67;54.77
28428;BME280;15662;49.128;8.520;2023-04-01T11:54:25;99089.75;;;16.61;54.85
28428;BME280;15662;49.128;8.520;2023-04-01T11:57:12;99113.50;;;16.66;54.91
28428;BME280;15662;49.128;8.520;2023-04-01T12:12:32;99123.66;;;16.73;55.03
28428;BME280;15662;49.128;8.520;2023-04-01T12:24:35;99131.38;;;16.91;55.48
28428;BME280;15662;49.128;8.520;2023-04-01T12:43:09;99125.38;;;16.74;55.30
28428;BME280;15662;49.128;8.520;2023-04-01T12:46:26;99127.09;;;16.75;55.09
28428;BME280;15662;49.128;8.520;2023-04-01T12:52:21;99135.00;;;16.77;55.32
28428;BME280;15662;49.128;8.520;2023-04-01T12:55:36;99130.84;;;16.86;55.05
28428;BME280;15662;49.128;8.520;2023-04-01T13:05:00;99133.91;;;17.05;54.66
28428;BME280;15662;49.128;8.520;2023-04-01T13:08:29;99147.72;;;16.99;54.47
28428;BME280;15662;49.128;8.520;2023-04-01T13:15:28;99155.78;;;16.86;54.60
28428;BME280;15662;49.128;8.520;2023-04-01T13:18:25;99157.06;;;16.81;54.50
28428;BME280;15662;49.128;8.520;2023-04-01T13:43:23;99163.00;;;16.59;54.13
28428;BME280;15662;49.128;8.520;2023-04-01T13:54:58;99171.34;;;16.54;54.09
28428;BME280;15662;49.128;8.520;2023-04-01T13:58:15;99183.13;;;16.64;53.77
28428;BME280;15662;49.128;8.520;2023-04-01T14:01:31;99175.88;;;16.66;53.68
28428;BME280;15662;49.128;8.520;2023-04-01T14:07:32;99189.44;;;16.63;53.51
28428;BME280;15662;49.128;8.520;2023-04-01T14:21:29;99199.19;;;16.64;53.69
28428;BME280;15662;49.128;8.520;2023-04-01T14:28:31;99187.41;;;16.54;53.66
28428;BME280;15662;49.128;8.520;2023-04-01T14:31:58;99198.34;;;16.51;54.13
28428;BME280;15662;49.128;8.520;2023-04-01T14:50:22;99196.75;;;16.09;54.51
28428;BME280;15662;49.128;8.520;2023-04-01T14:55:58;99200.94;;;16.13;54.63
28428;BME280;15662;49.128;8.520;2023-04-01T14:58:49;99199.78;;;16.17;54.92
28428;BME280;15662;49.128;8.520;2023-04-01T15:02:03;99191.94;;;16.14;54.97
28428;BME280;15662;49.128;8.520;2023-04-01T15:12:11;99202.34;;;16.18;55.14
28428;BME280;15662;49.128;8.520;2023-04-01T15:18:23;99199.25;;;16.24;55.27
28428;BME280;15662;49.128;8.520;2023-04-01T15:24:24;99208.34;;;16.35;55.09
28428;BME280;15662;49.128;8.520;2023-04-01T15:30:38;99203.84;;;16.35;55.12
28428;BME280;15662;49.128;8.520;2023-04-01T15:36:34;99211.16;;;16.46;55.32
28428;BME280;15662;49.128;8.520;2023-04-01T15:51:39;99223.53;;;16.34;54.95
28428;BME280;15662;49.128;8.520;2023-04-01T16:00:22;99228.88;;;16.34;55.01
28428;BME280;15662;49.128;8.520;2023-04-01T16:10:03;99231.00;;;16.29;54.78
28428;BME280;15662;49.128;8.520;2023-04-01T16:15:33;99231.53;;;16.21;55.01
28428;BME280;15662;49.128;8.520;2023-04-01T16:22:08;99223.84;;;16.17;54.89
28428;BME280;15662;49.128;8.520;2023-04-01T16:25:45;99239.88;;;16.17;54.91
28428;BME280;15662;49.128;8.520;2023-04-01T16:28:32;99242.44;;;16.18;54.88
28428;BME280;15662;49.128;8.520;2023-04-01T16:31:23;99236.03;;;16.21;54.74
28428;BME280;15662;49.128;8.520;2023-04-01T16:34:21;99245.75;;;16.22;54.69
28428;BME280;15662;49.128;8.520;2023-04-01T16:37:17;99244.81;;;16.23;54.61
28428;BME280;15662;49.128;8.520;2023-04-01T16:40:36;99242.44;;;16.18;54.58
28428;BME280;15662;49.128;8.520;2023-04-01T16:43:35;99251.00;;;16.23;54.60
28428;BME280;15662;49.128;8.520;2023-04-01T16:52:12;99265.34;;;16.22;54.43
28428;BME280;15662;49.128;8.520;2023-04-01T16:55:16;99266.50;;;16.18;54.43
28428;BME280;15662;49.128;8.520;2023-04-01T16:57:57;99264.78;;;16.17;54.24
28428;BME280;15662;49.128;8.520;2023-04-01T17:00:47;99269.16;;;16.18;54.23
28428;BME280;15662;49.128;8.520;2023-04-01T17:03:45;99271.94;;;16.17;54.24
28428;BME280;15662;49.128;8.520;2023-04-01T17:25:25;99315.91;;;15.98;54.74
28428;BME280;15662;49.128;8.520;2023-04-01T17:28:12;99323.06;;;15.98;54.84
28428;BME280;15662;49.128;8.520;2023-04-01T17:34:01;99321.25;;;15.98;54.71
28428;BME280;15662;49.128;8.520;2023-04-01T17:39:57;99324.34;;;15.92;54.44
28428;BME280;15662;49.128;8.520;2023-04-01T17:43:25;99322.91;;;15.87;54.48
28428;BME280;15662;49.128;8.520;2023-04-01T17:58:20;99333.97;;;15.81;53.85
28428;BME280;15662;49.128;8.520;2023-04-01T18:01:36;99336.66;;;15.81;53.67
28428;BME280;15662;49.128;8.520;2023-04-01T18:16:41;99328.34;;;15.71;53.28
28428;BME280;15662;49.128;8.520;2023-04-01T18:25:39;99348.78;;;15.72;53.21
28428;BME280;15662;49.128;8.520;2023-04-01T18:28:24;99356.69;;;15.73;53.16
28428;BME280;15662;49.128;8.520;2023-04-01T18:31:26;99356.03;;;15.70;53.38
28428;BME280;15662;49.128;8.520;2023-04-01T18:37:50;99365.44;;;15.61;53.55
28428;BME280;15662;49.128;8.520;2023-04-01T18:46:20;99381.38;;;15.63;53.74
28428;BME280;15662;49.128;8.520;2023-04-01T18:54:40;99393.66;;;15.51;53.78
28428;BME280;15662;49.128;8.520;2023-04-01T18:57:18;99399.00;;;15.51;53.85
28428;BME280;15662;49.128;8.520;2023-04-01T19:00:08;99416.50;;;15.57;53.94
28428;BME280;15662;49.128;8.520;2023-04-01T19:05:39;99412.75;;;15.59;53.74
28428;BME280;15662;49.128;8.520;2023-04-01T19:08:34;99425.00;;;15.63;53.73
28428;BME280;15662;49.128;8.520;2023-04-01T19:15:56;99426.78;;;15.63;53.64
28428;BME280;15662;49.128;8.520;2023-04-01T19:21:05;99444.72;;;15.61;53.78
28428;BME280;15662;49.128;8.520;2023-04-01T19:30:04;99450.47;;;15.69;53.47
28428;BME280;15662;49.128;8.520;2023-04-01T19:33:02;99444.28;;;15.68;53.47
28428;BME280;15662;49.128;8.520;2023-04-01T19:48:12;99463.50;;;15.59;53.27
28428;BME280;15662;49.128;8.520;2023-04-01T19:51:10;99463.50;;;15.59;53.54
28428;BME280;15662;49.128;8.520;2023-04-01T20:03:55;99475.28;;;15.41;53.68
28428;BME280;15662;49.128;8.520;2023-04-01T20:10:10;99475.09;;;15.30;53.82
28428;BME280;15662;49.128;8.520;2023-04-01T20:13:25;99478.22;;;15.36;53.73
28428;BME280;15662;49.128;8.520;2023-04-01T20:16:06;99484.63;;;15.34;53.79
28428;BME280;15662;49.128;8.520;2023-04-01T20:19:02;99477.38;;;15.36;53.86
28428;BME280;15662;49.128;8.520;2023-04-01T20:21:48;99486.25;;;15.36;53.57
28428;BME280;15662;49.128;8.520;2023-04-01T20:24:37;99474.31;;;15.28;53.66
28428;BME280;15662;49.128;8.520;2023-04-01T20:27:20;99495.41;;;15.32;53.77
28428;BME280;15662;49.128;8.520;2023-04-01T20:36:23;99502.91;;;15.26;53.86
28428;BME280;15662;49.128;8.520;2023-04-01T20:39:32;99500.22;;;15.26;53.81
28428;BME280;15662;49.128;8.520;2023-04-01T20:42:47;99498.53;;;15.25;53.70
28428;BME280;15662;49.128;8.520;2023-04-01T20:45:30;99507.97;;;15.30;53.67
28428;BME280;15662;49.128;8.520;2023-04-01T20:51:23;99499.09;;;15.30;53.57
28428;BME280;15662;49.128;8.520;2023-04-01T21:00:51;99501.19;;;15.25;53.53
28428;BME280;15662;49.128;8.520;2023-04-01T21:23:47;99535.84;;;15.40;53.33
28428;BME280;15662;49.128;8.520;2023-04-01T21:32:51;99549.31;;;15.39;53.18
28428;BME280;15662;49.128;8.520;2023-04-01T21:35:56;99550.91;;;15.41;53.29
28428;BME280;15662;49.128;8.520;2023-04-01T21:48:26;99561.78;;;15.38;53.19
28428;BME280;15662;49.128;8.520;2023-04-01T21:58:02;99569.72;;;15.40;53.17
28428;BME280;15662;49.128;8.520;2023-04-01T22:06:40;99581.09;;;15.43;53.21
28428;BME280;15662;49.128;8.520;2023-04-01T22:18:31;99570.59;;;15.25;53.44
28428;BME280;15662;49.128;8.520;2023-04-01T22:21:16;99586.34;;;15.29;53.44
28428;BME280;15662;49.128;8.520;2023-04-01T22:24:07;99587.97;;;15.32;53.53
28428;BME280;15662;49.128;8.520;2023-04-01T22:30:44;99586.72;;;15.23;53.50
28428;BME280;15662;49.128;8.520;2023-04-01T22:33:23;99592.81;;;15.25;53.51
28428;BME280;15662;49.128;8.520;2023-04-01T22:56:01;99599.63;;;15.15;53.40
28428;BME280;15662;49.128;8.520;2023-04-01T22:58:38;99602.13;;;15.18;53.40
28428;BME280;15662;49.128;8.520;2023-04-01T23:01:15;99609.00;;;15.22;53.37
28428;BME280;15662;49.128;8.520;2023-04-01T23:03:46;99608.41;;;15.17;53.35
28428;BME280;15662;49.128;8.520;2023-04-01T23:06:26;99613.66;;;15.18;53.31
28428;BME280;15662;49.128;8.520;2023-04-01T23:09:23;99611.94;;;15.17;53.08
28428;BME280;15662;49.128;8.520;2023-04-01T23:14:35;99619.97;;;15.17;53.30
28428;BME280;15662;49.128;8.520;2023-04-01T23:23:42;99623.75;;;15.13;53.15
28428;BME280;15662;49.128;8.520;2023-04-01T23:29:38;99633.56;;;15.13;53.38
28428;BME280;15662;49.128;8.520;2023-04-01T23:32:24;99629.75;;;15.17;53.13
28428;BME280;15662;49.128;8.520;2023-04-01T23:34:57;99638.66;;;15.17;53.22
28428;BME280;15662;49.128;8.520;2023-04-01T23:37:26;99639.56;;;15.16;53.29
28428;BME280;15662;49.128;8.520;2023-04-01T23:39:57;99645.50;;;15.21;53.22
28428;BME280;15662;49.128;8.520;2023-04-01T23:42:38;99649.94;;;15.22;53.31
28428;BME280;15662;49.128;8.520;2023-04-01T23:45:16;99651.19;;;15.15;53.25
28428;BME280;15662;49.128;8.520;2023-04-01T23:47:48;99645.16;;;15.12;53.21
28428;BME280;15662;49.128;8.520;2023-04-01T23:50:23;99657.50;;;15.14;53.19
28428;BME280;15662;49.128;8.520;2023-04-01T23:53:23;99653.97;;;15.14;53.11
28428;BME280;15662;49.128;8.520;2023-04-01T23:55:53;99662.22;;;15.09;53.52
